Time;durP1;ratioP1;P1;durP2;ratioP2;P2;SDS_P1;SDS_P2;PMS_P1;PMS_P2;Temp;Humidity;BMP_temperature;BMP_pressure;BME280_temperature;BME280_humidity;BME280_pressure;Samples;Min_cycle;Max_cycle;Signal;HPM_P1;HPM_P2
2020/12/06 00:00:09;;;;;;;10.10;3.90;;;0.60;99.90;;;;;;5058778;28;20024;-74
2020/12/06 00:02:34;;;;;;;10.45;3.72;;;0.50;99.90;;;;;;5058639;28;20028;-74
2020/12/06 00:05:00;;;;;;;10.15;3.38;;;0.50;99.90;;;;;;5076195;28;20065;-74
2020/12/06 00:07:25;;;;;;;7.95;4.00;;;0.50;99.90;;;;;;5076397;28;20385;-74
2020/12/06 00:09:51;;;;;;;7.75;4.25;;;0.50;99.90;;;;;;5076169;28;20024;-74
2020/12/06 00:12:17;;;;;;;8.05;4.13;;;0.40;99.90;;;;;;5076639;28;20024;-74
2020/12/06 00:14:42;;;;;;;11.05;4.55;;;0.50;99.90;;;;;;5076589;28;20404;-74
2020/12/06 00:17:08;;;;;;;10.40;4.55;;;0.50;99.90;;;;;;5058594;28;20020;-74
2020/12/06 00:19:33;;;;;;;12.32;4.38;;;0.60;99.90;;;;;;5076831;28;20031;-74
2020/12/06 00:21:59;;;;;;;8.77;4.35;;;0.60;99.90;;;;;;5058316;28;20032;-74
2020/12/06 00:24:24;;;;;;;10.75;4.32;;;0.60;99.90;;;;;;5057762;28;20489;-74
2020/12/06 00:26:50;;;;;;;7.75;4.75;;;0.60;99.90;;;;;;5075992;28;20031;-74
2020/12/06 00:29:15;;;;;;;11.52;5.40;;;0.60;99.90;;;;;;5057665;28;20074;-74
2020/12/06 00:31:41;;;;;;;10.43;4.35;;;0.60;99.90;;;;;;5057997;28;20085;-74
2020/12/06 00:34:06;;;;;;;10.65;4.60;;;0.60;99.90;;;;;;5076054;28;20473;-74
2020/12/06 00:36:32;;;;;;;9.43;4.85;;;0.60;99.90;;;;;;5076351;28;20021;-74
2020/12/06 00:38:58;;;;;;;8.98;4.95;;;0.60;99.90;;;;;;5075562;28;20021;-74
2020/12/06 00:41:23;;;;;;;9.93;5.05;;;0.60;99.90;;;;;;5076302;28;20024;-74
2020/12/06 00:43:49;;;;;;;9.10;4.82;;;0.50;99.90;;;;;;5057571;28;20024;-74
2020/12/06 00:46:21;;;;;;;10.90;4.75;;;0.50;99.90;;;;;;5076199;28;20020;-74
2020/12/06 00:48:48;;;;;;;10.60;5.20;;;0.50;99.90;;;;;;5076030;28;20430;-74
2020/12/06 00:51:13;;;;;;;8.73;4.40;;;0.40;99.90;;;;;;5057558;28;20115;-74
2020/12/06 00:53:43;;;;;;;8.50;4.57;;;0.40;99.90;;;;;;5057904;28;20060;-74
2020/12/06 00:56:21;;;;;;;9.80;4.78;;;0.40;99.90;;;;;;5075937;28;20024;-74
2020/12/06 00:58:47;;;;;;;11.03;4.70;;;0.40;99.90;;;;;;5059328;28;20055;-74
2020/12/06 01:01:14;;;;;;;8.02;4.45;;;0.40;99.90;;;;;;5057532;28;20790;-74
2020/12/06 01:03:40;;;;;;;10.48;4.57;;;0.40;99.90;;;;;;5075736;28;20070;-74
2020/12/06 01:06:07;;;;;;;13.90;5.38;;;0.40;99.90;;;;;;5075663;28;20017;-74
2020/12/06 01:08:33;;;;;;;10.80;5.40;;;0.40;99.90;;;;;;5075447;28;20035;-74
2020/12/06 01:10:58;;;;;;;12.00;4.88;;;0.40;99.90;;;;;;5057548;28;20024;-74
2020/12/06 01:13:24;;;;;;;13.27;5.70;;;0.40;99.90;;;;;;5075605;28;20466;-74
2020/12/06 01:15:50;;;;;;;10.38;5.15;;;0.40;99.90;;;;;;5057250;28;20024;-75
2020/12/06 01:18:15;;;;;;;12.98;5.05;;;0.40;99.90;;;;;;5075151;28;20028;-75
2020/12/06 01:20:41;;;;;;;9.75;5.32;;;0.40;99.90;;;;;;5075123;28;20086;-75
2020/12/06 01:23:06;;;;;;;13.68;5.20;;;0.30;99.90;;;;;;5057058;28;20048;-75
2020/12/06 01:25:32;;;;;;;11.88;5.25;;;0.30;99.90;;;;;;5075954;28;20017;-75
2020/12/06 01:28:00;;;;;;;12.77;5.72;;;0.30;99.90;;;;;;5075296;28;20393;-76
2020/12/06 01:30:25;;;;;;;11.98;5.85;;;0.20;99.90;;;;;;5076134;28;20478;-76
2020/12/06 01:32:51;;;;;;;16.27;5.53;;;0.30;99.90;;;;;;5058282;28;20032;-76
2020/12/06 01:35:16;;;;;;;9.95;5.38;;;0.30;99.90;;;;;;5075709;28;20032;-75
2020/12/06 01:37:44;;;;;;;13.80;5.18;;;0.30;99.90;;;;;;5074796;28;20027;-75
2020/12/06 01:40:10;;;;;;;15.45;6.05;;;0.30;99.90;;;;;;5074850;28;20043;-75
2020/12/06 01:42:35;;;;;;;13.35;6.25;;;0.30;99.90;;;;;;5074887;28;20493;-75
2020/12/06 01:45:01;;;;;;;12.05;5.40;;;0.30;99.90;;;;;;5074839;28;20025;-75
2020/12/06 01:47:30;;;;;;;12.40;5.68;;;0.30;99.90;;;;;;5074786;28;20036;-75
2020/12/06 01:49:57;;;;;;;11.90;5.57;;;0.30;99.90;;;;;;5075279;28;20486;-76
2020/12/06 01:52:23;;;;;;;15.60;5.70;;;0.30;99.90;;;;;;5056931;28;20070;-76
2020/12/06 01:54:49;;;;;;;11.77;5.97;;;0.30;99.90;;;;;;5074962;28;20036;-76
2020/12/06 01:57:15;;;;;;;12.55;5.35;;;0.30;99.90;;;;;;5057265;28;20398;-73
2020/12/06 01:59:41;;;;;;;16.58;6.43;;;0.30;99.90;;;;;;5075310;28;20126;-73
2020/12/06 02:02:07;;;;;;;15.27;5.47;;;0.40;99.90;;;;;;5057046;28;20048;-73
2020/12/06 02:04:33;;;;;;;11.45;5.93;;;0.30;99.90;;;;;;5075140;28;20602;-73
2020/12/06 02:06:59;;;;;;;14.32;5.88;;;0.30;99.90;;;;;;5074550;28;20025;-74
2020/12/06 02:09:32;;;;;;;14.88;6.45;;;0.30;99.90;;;;;;5057269;28;20016;-74
2020/12/06 02:11:58;;;;;;;13.20;5.90;;;0.20;99.90;;;;;;5074881;28;20017;-74
2020/12/06 02:14:24;;;;;;;13.70;5.63;;;0.30;99.90;;;;;;5056210;28;20055;-74
2020/12/06 02:16:53;;;;;;;12.65;5.32;;;0.30;99.90;;;;;;5074143;28;20032;-74
2020/12/06 02:19:19;;;;;;;13.07;6.22;;;0.30;99.90;;;;;;5056331;28;20020;-73
2020/12/06 02:21:45;;;;;;;12.50;6.15;;;0.30;99.90;;;;;;5073870;28;20028;-74
2020/12/06 02:24:13;;;;;;;13.40;6.00;;;0.30;99.90;;;;;;5073922;28;20012;-74
2020/12/06 02:26:46;;;;;;;12.90;6.10;;;0.30;99.90;;;;;;5056146;28;20382;-74
2020/12/06 02:29:12;;;;;;;18.20;6.50;;;0.30;99.90;;;;;;5073976;28;20017;-74
2020/12/06 02:31:39;;;;;;;14.77;6.20;;;0.30;99.90;;;;;;5074023;28;20104;-74
2020/12/06 02:34:05;;;;;;;14.00;5.47;;;0.30;99.90;;;;;;5056185;28;20055;-74
2020/12/06 02:36:31;;;;;;;13.65;6.07;;;0.30;99.90;;;;;;5055969;28;20025;-74
2020/12/06 02:38:57;;;;;;;14.90;6.25;;;0.30;99.90;;;;;;5055731;28;20497;-74
2020/12/06 02:41:36;;;;;;;15.68;6.03;;;0.20;99.90;;;;;;5073683;28;20029;-74
2020/12/06 02:44:02;;;;;;;15.27;6.07;;;0.20;99.90;;;;;;5055859;28;20020;-74
2020/12/06 02:46:28;;;;;;;11.98;5.60;;;0.20;99.90;;;;;;5055891;28;20376;-74
2020/12/06 02:48:54;;;;;;;14.43;6.20;;;0.20;99.90;;;;;;5059228;28;20021;-74
2020/12/06 02:51:19;;;;;;;18.90;6.00;;;0.20;99.90;;;;;;5078067;28;20050;-74
2020/12/06 02:53:45;;;;;;;15.18;6.70;;;0.20;99.90;;;;;;5077982;28;20052;-74
2020/12/06 02:56:10;;;;;;;14.18;6.32;;;0.20;99.90;;;;;;5078309;28;20028;-74
2020/12/06 02:58:36;;;;;;;13.18;5.97;;;0.20;99.90;;;;;;5059497;28;20029;-74
2020/12/06 03:01:01;;;;;;;14.20;6.53;;;0.20;99.90;;;;;;5077541;28;20035;-74
2020/12/06 03:03:27;;;;;;;12.43;6.13;;;0.20;99.90;;;;;;5078047;28;20043;-74
2020/12/06 03:05:52;;;;;;;21.15;6.72;;;0.20;99.90;;;;;;5077744;28;20024;-74
2020/12/06 03:08:18;;;;;;;13.52;5.78;;;0.30;99.90;;;;;;5077733;28;20079;-74
2020/12/06 03:10:44;;;;;;;14.88;5.82;;;0.30;99.90;;;;;;5077944;28;20020;-74
2020/12/06 03:13:09;;;;;;;14.77;6.72;;;0.30;99.90;;;;;;5077499;28;20111;-74
2020/12/06 03:15:35;;;;;;;14.75;7.07;;;0.30;99.90;;;;;;5077344;28;20021;-74
2020/12/06 03:18:00;;;;;;;18.95;7.43;;;0.40;99.90;;;;;;5077171;28;20070;-74
2020/12/06 03:20:26;;;;;;;18.70;8.18;;;0.40;99.90;;;;;;5077817;28;20028;-74
2020/12/06 03:22:51;;;;;;;19.23;8.63;;;0.40;99.90;;;;;;5077454;28;20029;-74
2020/12/06 03:25:17;;;;;;;21.20;9.10;;;0.40;99.90;;;;;;5077666;28;20024;-74
2020/12/06 03:27:42;;;;;;;21.50;9.07;;;0.40;99.90;;;;;;5059418;28;20493;-74
2020/12/06 03:30:08;;;;;;;19.80;8.75;;;0.50;99.90;;;;;;5059187;28;20039;-74
2020/12/06 03:32:33;;;;;;;16.40;7.82;;;0.50;99.90;;;;;;5077803;28;20029;-74
2020/12/06 03:34:59;;;;;;;18.77;7.65;;;0.50;99.90;;;;;;5076990;28;20035;-74
2020/12/06 03:37:24;;;;;;;17.88;8.05;;;0.50;99.90;;;;;;5076851;28;20025;-74
2020/12/06 03:39:53;;;;;;;19.20;7.97;;;0.50;99.90;;;;;;5076996;28;20036;-74
2020/12/06 03:42:18;;;;;;;11.40;5.57;;;0.50;99.90;;;;;;5076821;28;20029;-74
2020/12/06 03:44:44;;;;;;;15.65;7.30;;;0.50;99.90;;;;;;5076759;28;20100;-74
2020/12/06 03:47:09;;;;;;;16.55;7.85;;;0.40;99.90;;;;;;5076583;28;20029;-74
2020/12/06 03:49:35;;;;;;;13.15;6.57;;;0.40;99.90;;;;;;5059034;28;20025;-74
2020/12/06 03:52:00;;;;;;;15.77;7.18;;;0.50;99.90;;;;;;5076814;28;20393;-74
2020/12/06 03:54:26;;;;;;;14.05;6.38;;;0.40;99.90;;;;;;5058556;28;20478;-73
2020/12/06 03:56:51;;;;;;;13.57;6.97;;;0.30;99.90;;;;;;5076387;28;20024;-74
2020/12/06 03:59:17;;;;;;;12.30;6.15;;;0.30;99.90;;;;;;5075798;28;20036;-74
2020/12/06 04:01:42;;;;;;;12.25;6.13;;;0.20;99.90;;;;;;5058732;28;20024;-74
2020/12/06 04:04:08;;;;;;;12.85;6.28;;;0.20;99.90;;;;;;5076592;28;20019;-74
2020/12/06 04:06:33;;;;;;;14.32;6.75;;;0.10;99.90;;;;;;5076355;28;20465;-74
2020/12/06 04:08:59;;;;;;;17.98;6.95;;;0.10;99.90;;;;;;5058330;28;20028;-74
2020/12/06 04:11:24;;;;;;;15.05;6.75;;;0.10;99.90;;;;;;5076954;28;20029;-74
2020/12/06 04:13:50;;;;;;;16.17;7.07;;;0.00;99.90;;;;;;5058201;28;20025;-74
2020/12/06 04:16:15;;;;;;;13.68;6.25;;;0.00;99.90;;;;;;5076329;28;20059;-74
2020/12/06 04:18:41;;;;;;;13.65;6.60;;;0.10;99.90;;;;;;5076240;28;20029;-74
2020/12/06 04:21:11;;;;;;;13.00;6.10;;;0.10;99.90;;;;;;5058287;28;20020;-74
2020/12/06 04:23:38;;;;;;;14.18;5.97;;;0.10;99.90;;;;;;5058743;28;20020;-76
2020/12/06 04:26:03;;;;;;;14.63;6.68;;;0.10;99.90;;;;;;5058036;28;20553;-76
2020/12/06 04:28:29;;;;;;;12.85;5.80;;;0.10;99.90;;;;;;5075932;28;20105;-75
2020/12/06 04:30:54;;;;;;;13.07;5.60;;;0.10;99.90;;;;;;5058138;28;20123;-76
2020/12/06 04:33:20;;;;;;;12.27;5.65;;;0.10;99.90;;;;;;5075955;28;20381;-76
2020/12/06 04:35:45;;;;;;;14.38;5.93;;;0.10;99.90;;;;;;5057754;28;20025;-76
2020/12/06 04:38:11;;;;;;;11.15;5.43;;;0.10;99.90;;;;;;5076376;28;20047;-75
2020/12/06 04:40:36;;;;;;;15.25;6.20;;;0.10;99.90;;;;;;5058653;28;20029;-75
2020/12/06 04:43:02;;;;;;;15.88;5.70;;;0.10;99.90;;;;;;5058109;28;20045;-76
2020/12/06 04:45:28;;;;;;;15.50;6.43;;;0.00;99.90;;;;;;5057820;28;20505;-76
2020/12/06 04:48:04;;;;;;;15.00;6.20;;;0.10;99.90;;;;;;5057884;28;20120;-76
2020/12/06 04:50:38;;;;;;;12.35;5.90;;;0.10;99.90;;;;;;5057886;28;20060;-76
2020/12/06 04:53:05;;;;;;;13.43;6.72;;;0.10;99.90;;;;;;5057575;28;20384;-76
2020/12/06 04:55:33;;;;;;;14.98;6.97;;;0.10;99.90;;;;;;5075608;28;20096;-76
2020/12/06 04:58:00;;;;;;;13.98;5.97;;;0.10;99.90;;;;;;5075453;28;20082;-76
2020/12/06 05:00:34;;;;;;;16.83;6.82;;;0.10;99.90;;;;;;5057203;28;20019;-76
2020/12/06 05:03:10;;;;;;;10.82;5.53;;;0.10;99.90;;;;;;5057988;28;20533;-74
2020/12/06 05:05:38;;;;;;;15.60;6.70;;;0.20;99.90;;;;;;5057651;28;20021;-74
2020/12/06 05:08:12;;;;;;;14.25;6.85;;;0.20;99.90;;;;;;5075177;28;20033;-74
2020/12/06 05:10:46;;;;;;;18.33;6.75;;;0.20;99.90;;;;;;5074934;28;20025;-74
2020/12/06 05:13:13;;;;;;;15.20;6.63;;;0.20;99.90;;;;;;5075137;28;20052;-74
2020/12/06 05:15:39;;;;;;;14.65;6.97;;;0.20;99.90;;;;;;5075550;28;20021;-74
2020/12/06 05:18:05;;;;;;;14.55;6.80;;;0.20;99.90;;;;;;5058034;28;20056;-74
2020/12/06 05:20:31;;;;;;;16.38;6.45;;;0.20;99.90;;;;;;5075213;28;20489;-74
2020/12/06 05:22:57;;;;;;;14.80;6.70;;;0.20;99.90;;;;;;5075043;28;20028;-74
2020/12/06 05:25:23;;;;;;;14.60;6.55;;;0.20;99.90;;;;;;5074925;28;20023;-73
2020/12/06 05:27:49;;;;;;;14.70;6.80;;;0.20;99.90;;;;;;5056592;28;20032;-73
2020/12/06 05:30:16;;;;;;;15.50;6.57;;;0.20;99.90;;;;;;5074935;28;20035;-73
2020/12/06 05:32:42;;;;;;;15.57;7.18;;;0.20;99.90;;;;;;5074865;28;20035;-73
2020/12/06 05:35:09;;;;;;;16.92;6.68;;;0.20;99.90;;;;;;5074827;28;20024;-73
2020/12/06 05:37:36;;;;;;;13.48;6.43;;;0.20;99.90;;;;;;5074569;28;20016;-74
2020/12/06 05:40:07;;;;;;;12.63;6.10;;;0.20;99.90;;;;;;5056625;28;20074;-74
2020/12/06 05:42:35;;;;;;;13.65;6.55;;;0.20;99.90;;;;;;5056663;28;20055;-74
2020/12/06 05:45:01;;;;;;;13.40;6.70;;;0.20;99.90;;;;;;5074668;28;20090;-74
2020/12/06 05:47:29;;;;;;;13.93;6.72;;;0.20;99.90;;;;;;5074548;28;20020;-74
2020/12/06 05:49:56;;;;;;;15.90;6.78;;;0.20;99.90;;;;;;5074591;28;20029;-74
2020/12/06 05:52:23;;;;;;;12.85;6.10;;;0.30;99.90;;;;;;5074384;28;20025;-74
2020/12/06 05:54:48;;;;;;;12.77;6.30;;;0.20;99.90;;;;;;5074455;28;20035;-74
2020/12/06 05:57:14;;;;;;;13.45;7.03;;;0.20;99.90;;;;;;5074616;28;20473;-74
2020/12/06 05:59:40;;;;;;;13.35;6.47;;;0.20;99.90;;;;;;5074328;28;20070;-74
2020/12/06 06:02:07;;;;;;;12.45;6.47;;;0.30;99.90;;;;;;5074674;28;20021;-75
2020/12/06 06:04:38;;;;;;;15.82;6.85;;;0.30;99.90;;;;;;5074444;28;20497;-75
2020/12/06 06:07:05;;;;;;;12.68;6.63;;;0.30;99.90;;;;;;5074606;28;20075;-75
2020/12/06 06:09:42;;;;;;;17.25;6.55;;;0.40;99.90;;;;;;5074306;28;20133;-76
2020/12/06 06:12:23;;;;;;;12.13;6.07;;;0.40;99.90;;;;;;5074051;28;20027;-76
2020/12/06 06:14:49;;;;;;;14.18;6.40;;;0.40;99.90;;;;;;5074262;28;20029;-75
2020/12/06 06:17:16;;;;;;;15.73;6.93;;;0.40;99.90;;;;;;5055932;28;20412;-75
2020/12/06 06:19:43;;;;;;;13.73;6.18;;;0.40;99.90;;;;;;5074261;28;20034;-75
2020/12/06 06:22:10;;;;;;;14.73;6.47;;;0.40;99.90;;;;;;5056563;28;20020;-76
2020/12/06 06:24:37;;;;;;;18.52;6.97;;;0.40;99.90;;;;;;5073944;28;20381;-76
2020/12/06 06:27:06;;;;;;;14.65;7.10;;;0.40;99.90;;;;;;5074303;28;20016;-75
2020/12/06 06:29:32;;;;;;;16.00;7.60;;;0.40;99.90;;;;;;5056077;28;20025;-74
2020/12/06 06:31:58;;;;;;;15.70;7.07;;;0.40;99.90;;;;;;5074157;28;20161;-74
2020/12/06 06:34:25;;;;;;;12.85;6.35;;;0.40;99.90;;;;;;5074035;28;20028;-74
2020/12/06 06:36:52;;;;;;;12.60;6.22;;;0.50;99.90;;;;;;5073815;28;20033;-74
2020/12/06 06:39:22;;;;;;;17.55;7.50;;;0.50;99.90;;;;;;5073800;28;20500;-73
2020/12/06 06:42:13;;;;;;;14.05;6.50;;;0.40;99.90;;;;;;5074338;28;20048;-73
2020/12/06 06:44:41;;;;;;;13.85;6.68;;;0.40;99.90;;;;;;5074142;28;20029;-74
2020/12/06 06:47:13;;;;;;;14.23;6.30;;;0.30;99.90;;;;;;5073678;28;20028;-74
2020/12/06 06:49:53;;;;;;;13.93;6.28;;;0.40;99.90;;;;;;5073822;28;20258;-74
2020/12/06 06:52:20;;;;;;;14.43;6.85;;;0.40;99.90;;;;;;5074259;28;20032;-74
2020/12/06 06:54:51;;;;;;;14.75;6.78;;;0.40;99.90;;;;;;5073711;28;20478;-74
2020/12/06 06:57:19;;;;;;;13.00;5.80;;;0.30;99.90;;;;;;5073803;28;20032;-74
2020/12/06 06:59:49;;;;;;;13.57;6.40;;;0.30;99.90;;;;;;5074280;28;20486;-75
2020/12/06 07:02:37;;;;;;;12.27;5.60;;;0.30;99.90;;;;;;5073980;28;20028;-76
2020/12/06 07:05:23;;;;;;;14.82;6.80;;;0.40;99.90;;;;;;5073705;28;20025;-74
2020/12/06 07:07:50;;;;;;;12.55;6.60;;;0.40;99.90;;;;;;5055096;28;20040;-74
2020/12/06 07:10:18;;;;;;;13.93;6.55;;;0.30;99.90;;;;;;5073507;28;20016;-74
2020/12/06 07:12:51;;;;;;;17.25;6.97;;;0.40;99.90;;;;;;5055341;28;20025;-74
2020/12/06 07:15:22;;;;;;;16.42;7.03;;;0.30;99.90;;;;;;5073889;28;20142;-74
2020/12/06 07:17:49;;;;;;;13.23;6.28;;;0.30;99.90;;;;;;5055930;28;20024;-74
2020/12/06 07:20:17;;;;;;;15.20;6.68;;;0.30;99.90;;;;;;5073866;28;20470;-74
2020/12/06 07:22:43;;;;;;;14.75;6.55;;;0.30;99.90;;;;;;5074060;28;20099;-74
2020/12/06 07:25:10;;;;;;;13.32;6.30;;;0.40;99.90;;;;;;5073802;28;20020;-74
2020/12/06 07:27:37;;;;;;;14.73;6.75;;;0.30;99.90;;;;;;5055504;28;20402;-74
2020/12/06 07:30:07;;;;;;;12.98;6.80;;;0.40;99.90;;;;;;5074472;28;20040;-74
2020/12/06 07:32:34;;;;;;;15.68;6.90;;;0.40;99.90;;;;;;5073294;28;20059;-74
2020/12/06 07:34:59;;;;;;;17.85;7.93;;;0.40;99.90;;;;;;5074978;28;20046;-74
2020/12/06 07:37:25;;;;;;;15.27;6.78;;;0.40;99.90;;;;;;5058965;28;20020;-74
2020/12/06 07:39:50;;;;;;;15.60;6.88;;;0.40;99.90;;;;;;5076953;28;20021;-74
2020/12/06 07:42:24;;;;;;;11.70;6.15;;;0.40;99.90;;;;;;5076750;28;20119;-74
2020/12/06 07:44:57;;;;;;;15.13;7.07;;;0.40;99.90;;;;;;5077012;28;20052;-74
2020/12/06 07:47:23;;;;;;;13.10;6.60;;;0.40;99.90;;;;;;5076688;28;20017;-74
2020/12/06 07:49:51;;;;;;;12.65;6.53;;;0.50;99.90;;;;;;5058836;28;20017;-74
2020/12/06 07:52:18;;;;;;;16.00;6.57;;;0.50;99.90;;;;;;5059134;28;20413;-74
2020/12/06 07:55:01;;;;;;;18.50;7.13;;;0.50;99.90;;;;;;5077089;28;20364;-74
2020/12/06 07:57:39;;;;;;;16.48;6.65;;;0.50;99.90;;;;;;5077011;28;20410;-74
2020/12/06 08:00:13;;;;;;;14.60;6.77;;;0.50;99.90;;;;;;5059175;28;20528;-74
2020/12/06 08:02:42;;;;;;;14.75;6.72;;;0.40;99.90;;;;;;5077258;28;20074;-74
2020/12/06 08:05:13;;;;;;;14.25;6.50;;;0.40;99.90;;;;;;5077156;28;20043;-74
2020/12/06 08:07:43;;;;;;;16.77;6.93;;;0.50;99.90;;;;;;5076771;28;20032;-74
2020/12/06 08:10:14;;;;;;;14.48;6.40;;;0.50;99.90;;;;;;5058673;28;20021;-74
2020/12/06 08:12:46;;;;;;;12.05;6.57;;;0.50;99.90;;;;;;5059249;28;20477;-74
2020/12/06 08:15:13;;;;;;;13.80;6.85;;;0.50;99.90;;;;;;5076218;28;20034;-74
2020/12/06 08:17:47;;;;;;;15.15;7.30;;;0.60;99.90;;;;;;5076394;28;20025;-74
2020/12/06 08:20:14;;;;;;;13.73;6.60;;;0.60;99.90;;;;;;5076402;28;20497;-74
2020/12/06 08:22:48;;;;;;;17.98;8.10;;;0.60;99.90;;;;;;5057958;28;20024;-74
2020/12/06 08:25:13;;;;;;;16.85;7.80;;;0.70;99.90;;;;;;5076644;28;20043;-74
2020/12/06 08:27:43;;;;;;;17.73;8.55;;;0.70;99.90;;;;;;5076113;28;20016;-74
2020/12/06 08:30:13;;;;;;;15.75;7.45;;;0.70;99.90;;;;;;5076011;28;20021;-74
2020/12/06 08:32:39;;;;;;;14.55;6.80;;;0.80;99.90;;;;;;5057954;28;20021;-73
2020/12/06 08:35:04;;;;;;;18.20;7.75;;;0.80;99.90;;;;;;5076333;28;20053;-73
2020/12/06 08:37:35;;;;;;;15.57;7.40;;;0.90;99.90;;;;;;5076170;28;20358;-73
2020/12/06 08:40:03;;;;;;;17.13;7.60;;;1.00;99.90;;;;;;5057807;28;20060;-73
2020/12/06 08:42:29;;;;;;;19.25;8.38;;;1.00;99.90;;;;;;5076111;28;20362;-74
2020/12/06 08:45:02;;;;;;;16.92;8.02;;;1.10;99.90;;;;;;5075769;28;20025;-73
2020/12/06 08:47:43;;;;;;;16.55;7.82;;;1.10;99.90;;;;;;5057823;28;20066;-74
2020/12/06 08:50:14;;;;;;;21.83;8.85;;;1.20;99.90;;;;;;5075839;28;20044;-74
2020/12/06 08:52:40;;;;;;;18.48;8.73;;;1.80;99.90;;;;;;5057114;28;20048;-75
2020/12/06 08:55:26;;;;;;;18.50;8.43;;;1.30;99.90;;;;;;5075250;28;20113;-76
2020/12/06 08:57:56;;;;;;;17.85;7.90;;;1.30;99.90;;;;;;5074947;28;20029;-77
2020/12/06 09:00:21;;;;;;;19.45;8.45;;;1.40;99.90;;;;;;5057053;28;20024;-76
2020/12/06 09:02:47;;;;;;;18.17;8.15;;;1.40;99.90;;;;;;5057093;28;20035;-77
2020/12/06 09:05:13;;;;;;;20.95;9.02;;;1.50;99.90;;;;;;5057504;28;20109;-76
2020/12/06 09:07:42;;;;;;;19.52;8.88;;;1.50;99.90;;;;;;5146722;22;20048;-75
2020/12/06 09:10:08;;;;;;;27.90;8.23;;;1.60;99.90;;;;;;5093825;28;20012;-75
2020/12/06 09:12:37;;;;;;;22.50;8.57;;;1.60;99.90;;;;;;5095581;28;20476;-75
2020/12/06 09:15:07;;;;;;;18.90;8.57;;;1.70;99.90;;;;;;5094194;28;20440;-75
2020/12/06 09:17:35;;;;;;;19.73;8.13;;;1.70;99.90;;;;;;5095273;28;20031;-74
2020/12/06 09:20:01;;;;;;;21.58;8.43;;;1.80;99.90;;;;;;5095314;28;20024;-74
2020/12/06 09:22:26;;;;;;;22.80;9.23;;;1.90;99.90;;;;;;5095514;28;20028;-74
2020/12/06 09:24:52;;;;;;;19.92;9.13;;;1.90;99.90;;;;;;5094216;28;20024;-74
2020/12/06 09:27:17;;;;;;;17.90;8.02;;;2.00;99.90;;;;;;5094830;28;20038;-74
2020/12/06 09:29:43;;;;;;;19.77;8.68;;;2.00;99.90;;;;;;5095334;28;20020;-75
2020/12/06 09:32:09;;;;;;;16.88;7.78;;;2.10;99.90;;;;;;5095054;28;20384;-75
2020/12/06 09:34:35;;;;;;;19.52;8.60;;;2.10;99.90;;;;;;5093800;28;20024;-75
2020/12/06 09:37:00;;;;;;;20.50;9.02;;;2.20;99.90;;;;;;5094655;28;20149;-75
2020/12/06 09:39:26;;;;;;;18.40;8.15;;;2.20;99.90;;;;;;5095210;28;20032;-75
2020/12/06 09:41:52;;;;;;;17.60;8.43;;;2.30;99.90;;;;;;5093091;28;20118;-75
2020/12/06 09:44:17;;;;;;;20.70;9.02;;;2.40;99.90;;;;;;5095242;28;20157;-75
2020/12/06 09:46:43;;;;;;;19.50;8.35;;;2.40;99.90;;;;;;5093966;28;20043;-75
2020/12/06 09:49:09;;;;;;;17.35;8.40;;;2.40;99.90;;;;;;5094592;28;20446;-75
2020/12/06 09:51:34;;;;;;;20.48;8.80;;;2.50;99.90;;;;;;5093224;28;20111;-75
2020/12/06 09:54:01;;;;;;;17.23;8.52;;;2.50;99.90;;;;;;5094536;28;20020;-75
2020/12/06 09:56:28;;;;;;;18.05;8.40;;;2.50;99.90;;;;;;5094504;28;20028;-75
2020/12/06 09:58:54;;;;;;;17.63;8.63;;;2.50;99.90;;;;;;5093794;28;20028;-75
2020/12/06 10:01:20;;;;;;;18.38;8.95;;;2.60;99.90;;;;;;5092681;28;20020;-75
2020/12/06 10:03:46;;;;;;;18.55;8.68;;;2.70;99.90;;;;;;5094497;28;20028;-75
2020/12/06 10:06:11;;;;;;;19.27;8.75;;;2.70;99.90;;;;;;5092846;28;20484;-75
2020/12/06 10:08:37;;;;;;;17.08;8.38;;;2.80;99.90;;;;;;5093870;28;20032;-75
2020/12/06 10:11:03;;;;;;;18.80;8.55;;;2.80;99.90;;;;;;5093884;28;20024;-75
2020/12/06 10:13:29;;;;;;;23.30;8.27;;;2.90;99.90;;;;;;5092770;28;20412;-75
2020/12/06 10:15:54;;;;;;;18.70;8.75;;;2.90;99.90;;;;;;5092772;28;20028;-75
2020/12/06 10:18:20;;;;;;;18.52;9.10;;;3.00;99.90;;;;;;5093689;28;20035;-75
2020/12/06 10:20:45;;;;;;;18.98;9.63;;;3.00;99.90;;;;;;5093776;28;20028;-75
2020/12/06 10:23:11;;;;;;;19.95;8.65;;;3.10;99.90;;;;;;5093197;28;20026;-75
2020/12/06 10:25:36;;;;;;;19.85;8.75;;;3.10;99.90;;;;;;5094560;28;20021;-75
2020/12/06 10:28:02;;;;;;;19.65;8.57;;;3.20;99.90;;;;;;5094893;28;20020;-75
2020/12/06 10:30:27;;;;;;;23.77;9.38;;;3.20;99.90;;;;;;5092971;28;20119;-75
2020/12/06 10:32:53;;;;;;;19.83;8.88;;;3.20;99.90;;;;;;5094558;28;20035;-75
2020/12/06 10:35:18;;;;;;;20.77;9.23;;;3.30;99.90;;;;;;5093970;28;20039;-75
2020/12/06 10:37:44;;;;;;;20.08;8.43;;;3.30;99.90;;;;;;5093844;28;20024;-74
2020/12/06 10:40:09;;;;;;;20.38;9.63;;;3.30;99.90;;;;;;5093816;28;20024;-75
2020/12/06 10:42:35;;;;;;;22.75;8.73;;;3.40;99.90;;;;;;5094058;28;20078;-76
2020/12/06 10:45:00;;;;;;;20.38;8.70;;;3.40;99.90;;;;;;5094032;28;20093;-74
2020/12/06 10:47:26;;;;;;;18.65;9.23;;;3.40;99.90;;;;;;5093958;28;20103;-75
2020/12/06 10:49:52;;;;;;;19.55;8.40;;;3.40;99.90;;;;;;5089879;28;20023;-74
2020/12/06 10:52:17;;;;;;;19.20;9.48;;;3.40;99.90;;;;;;5089787;28;20116;-74
2020/12/06 10:54:43;;;;;;;19.00;9.10;;;3.30;99.90;;;;;;5091860;28;20099;-75
2020/12/06 10:57:08;;;;;;;20.88;9.32;;;3.30;99.90;;;;;;5091630;28;20024;-74
2020/12/06 10:59:37;;;;;;;20.83;9.00;;;3.30;99.90;;;;;;5092621;28;20024;-75
2020/12/06 11:02:03;;;;;;;20.60;9.90;;;3.40;99.90;;;;;;5092766;28;20099;-75
2020/12/06 11:04:29;;;;;;;18.77;8.10;;;3.40;99.90;;;;;;5092084;28;20024;-74
2020/12/06 11:06:58;;;;;;;22.52;9.82;;;3.40;99.90;;;;;;5092915;28;20024;-75
2020/12/06 11:09:24;;;;;;;23.48;10.60;;;3.50;99.90;;;;;;5096378;28;20024;-74
2020/12/06 11:11:50;;;;;;;21.00;9.13;;;3.50;99.90;;;;;;5097666;28;20020;-74
2020/12/06 11:14:19;;;;;;;20.90;10.05;;;3.50;99.90;;;;;;5097993;28;20034;-74
2020/12/06 11:16:48;;;;;;;19.63;9.75;;;3.50;99.90;;;;;;5097683;28;20099;-73
2020/12/06 11:19:14;;;;;;;21.40;10.27;;;3.60;99.90;;;;;;5097476;28;20024;-75
2020/12/06 11:21:39;;;;;;;22.30;10.20;;;3.60;99.90;;;;;;5097687;28;20036;-75
2020/12/06 11:24:05;;;;;;;21.25;9.60;;;3.60;99.90;;;;;;5096153;28;20104;-74
2020/12/06 11:26:31;;;;;;;21.33;9.30;;;3.60;99.90;;;;;;5098022;28;20019;-74
2020/12/06 11:28:57;;;;;;;18.98;9.30;;;3.50;99.90;;;;;;5097756;28;20020;-73
2020/12/06 11:31:22;;;;;;;22.02;9.68;;;3.60;99.90;;;;;;5097878;28;20488;-74
2020/12/06 11:33:48;;;;;;;20.33;8.88;;;3.60;99.90;;;;;;5097160;28;20020;-73
2020/12/06 11:36:13;;;;;;;23.98;10.10;;;3.60;99.90;;;;;;5097820;28;20028;-75
2020/12/06 11:38:39;;;;;;;21.90;10.15;;;3.60;99.90;;;;;;5097225;28;20484;-74
2020/12/06 11:41:05;;;;;;;22.63;10.48;;;3.60;99.90;;;;;;5095914;28;20477;-74
2020/12/06 11:43:31;;;;;;;19.88;9.38;;;3.60;99.90;;;;;;5097231;28;20020;-74
2020/12/06 11:45:57;;;;;;;20.42;9.10;;;3.70;99.90;;;;;;5097001;28;20017;-74
2020/12/06 11:48:22;;;;;;;20.77;9.15;;;3.70;99.90;;;;;;5096841;28;20012;-75
2020/12/06 11:50:48;;;;;;;21.77;9.52;;;3.80;99.90;;;;;;5097247;28;20020;-76
2020/12/06 11:53:14;;;;;;;18.08;9.05;;;3.80;99.90;;;;;;5096246;28;20024;-75
2020/12/06 11:55:40;;;;;;;18.77;8.90;;;3.80;99.90;;;;;;5097499;28;20471;-75
2020/12/06 11:58:06;;;;;;;19.67;9.40;;;3.80;99.90;;;;;;5096487;28;20016;-73
2020/12/06 12:00:31;;;;;;;19.63;9.50;;;3.90;99.90;;;;;;5098454;28;20023;-73
2020/12/06 12:02:57;;;;;;;22.08;9.35;;;3.90;99.90;;;;;;5097035;28;20028;-75
2020/12/06 12:05:25;;;;;;;19.13;9.55;;;4.00;99.90;;;;;;5096960;28;20024;-73
2020/12/06 12:07:50;;;;;;;21.80;9.93;;;3.90;99.90;;;;;;5097541;28;20081;-73
2020/12/06 12:10:16;;;;;;;20.42;9.65;;;4.00;99.90;;;;;;5097182;28;20028;-73
2020/12/06 12:12:42;;;;;;;20.65;9.15;;;4.00;99.90;;;;;;5097254;28;20455;-74
2020/12/06 12:15:08;;;;;;;20.88;9.27;;;4.00;99.90;;;;;;5097149;28;20020;-75
2020/12/06 12:17:34;;;;;;;22.98;9.02;;;4.00;99.90;;;;;;5097129;28;20085;-75
2020/12/06 12:20:00;;;;;;;22.83;10.40;;;4.10;99.90;;;;;;5094803;28;20476;-75
2020/12/06 12:22:26;;;;;;;20.85;9.75;;;4.10;99.90;;;;;;5095594;28;20028;-75
2020/12/06 12:24:52;;;;;;;21.67;10.25;;;4.20;99.90;;;;;;5097132;28;20016;-75
2020/12/06 12:27:18;;;;;;;19.40;9.55;;;4.30;99.90;;;;;;5096345;28;20108;-74
2020/12/06 12:29:43;;;;;;;18.95;9.80;;;4.40;99.90;;;;;;5096393;28;20033;-74
2020/12/06 12:32:09;;;;;;;17.38;9.02;;;4.50;99.90;;;;;;5095924;28;20023;-74
2020/12/06 12:34:35;;;;;;;18.88;8.55;;;4.50;99.90;;;;;;5095790;28;20034;-74
2020/12/06 12:37:00;;;;;;;19.92;8.88;;;4.50;99.90;;;;;;5095838;28;20027;-75
2020/12/06 12:39:26;;;;;;;19.38;8.57;;;4.40;99.90;;;;;;5096981;28;20028;-74
2020/12/06 12:41:55;;;;;;;20.05;8.60;;;4.40;99.90;;;;;;5109057;22;20501;-74
2020/12/06 12:44:21;;;;;;;;;;;4.40;99.90;;;;;;5096913;28;20115;-75
2020/12/06 12:46:46;;;;;;;18.15;8.57;;;4.40;99.90;;;;;;5096187;28;19947;-75